createdAt,value
2019-06-10T00:02:13.624Z,16.00
2019-06-10T00:04:42.186Z,15.90
2019-06-10T00:07:11.880Z,15.90
2019-06-10T00:09:41.134Z,15.90
2019-06-10T00:12:12.416Z,15.80
2019-06-10T00:14:41.860Z,15.80
2019-06-10T00:17:11.056Z,15.80
2019-06-10T00:19:40.981Z,15.70
2019-06-10T00:22:11.662Z,15.70
2019-06-10T00:24:40.927Z,15.70
2019-06-10T00:27:11.753Z,15.80
2019-06-10T00:29:40.856Z,15.70
2019-06-10T00:32:12.739Z,15.70
2019-06-10T00:34:41.845Z,15.70
2019-06-10T00:37:14.503Z,15.70
2019-06-10T00:39:40.878Z,15.60
2019-06-10T00:42:14.137Z,15.60
2019-06-10T00:44:41.647Z,15.60
2019-06-10T00:47:14.417Z,15.60
2019-06-10T00:49:40.931Z,15.50
2019-06-10T00:52:12.153Z,15.60
2019-06-10T00:54:41.738Z,15.70
2019-06-10T00:57:12.340Z,15.70
2019-06-10T00:59:41.388Z,15.80
2019-06-10T01:02:12.508Z,15.80
2019-06-10T01:04:40.745Z,15.80
2019-06-10T01:07:11.687Z,15.90
2019-06-10T01:09:41.308Z,16.00
2019-06-10T01:12:12.889Z,16.10
2019-06-10T01:14:41.167Z,16.00
2019-06-10T01:17:11.945Z,16.00
2019-06-10T01:19:41.509Z,16.00
2019-06-10T01:22:11.135Z,15.90
2019-06-10T01:24:40.806Z,15.80
2019-06-10T01:27:11.935Z,15.80
2019-06-10T01:29:41.627Z,15.70
2019-06-10T01:32:12.266Z,15.70
2019-06-10T01:34:41.699Z,15.70
2019-06-10T01:37:11.783Z,15.70
2019-06-10T01:39:41.236Z,15.70
2019-06-10T01:42:11.357Z,15.60
2019-06-10T01:44:41.239Z,15.50
2019-06-10T01:47:11.819Z,15.50
2019-06-10T01:49:41.229Z,15.50
2019-06-10T01:52:11.979Z,15.40
2019-06-10T01:54:42.046Z,15.40
2019-06-10T01:57:11.992Z,15.50
2019-06-10T01:59:41.340Z,15.70
2019-06-10T02:02:12.756Z,15.60
2019-06-10T02:04:41.815Z,15.60
2019-06-10T02:07:12.081Z,15.60
2019-06-10T02:09:41.085Z,15.60
2019-06-10T02:12:12.854Z,15.60
2019-06-10T02:14:41.660Z,15.60
2019-06-10T02:17:12.526Z,15.60
2019-06-10T02:19:41.511Z,15.50
2019-06-10T02:22:13.057Z,15.60
2019-06-10T02:24:41.677Z,15.50
2019-06-10T02:27:12.877Z,15.40
2019-06-10T02:29:41.198Z,15.40
2019-06-10T02:32:14.519Z,15.40
2019-06-10T02:34:59.866Z,15.50
2019-06-10T02:37:13.654Z,15.80
2019-06-10T02:39:43.758Z,15.90
2019-06-10T02:42:14.812Z,15.90
2019-06-10T02:44:44.502Z,16.00
2019-06-10T02:47:14.287Z,16.00
2019-06-10T02:49:57.021Z,16.10
2019-06-10T02:52:22.851Z,16.10
2019-06-10T02:54:53.150Z,16.10
2019-06-10T02:57:24.651Z,16.00
2019-06-10T02:59:54.051Z,15.90
2019-06-10T03:02:26.329Z,15.80
2019-06-10T03:04:53.588Z,15.70
2019-06-10T03:07:28.088Z,15.70
2019-06-10T03:09:53.764Z,15.60
2019-06-10T03:12:23.952Z,15.60
2019-06-10T03:14:52.620Z,15.50
2019-06-10T03:17:24.775Z,15.60
2019-06-10T03:19:53.667Z,15.60
2019-06-10T03:22:23.011Z,15.60
2019-06-10T03:24:52.614Z,15.70
2019-06-10T03:27:23.552Z,15.70
2019-06-10T03:30:03.080Z,15.80
2019-06-10T03:32:39.443Z,15.90
2019-06-10T03:35:05.020Z,16.00
2019-06-10T03:37:32.860Z,16.20
2019-06-10T03:40:02.489Z,16.30
2019-06-10T03:42:32.476Z,16.40
2019-06-10T03:45:03.295Z,16.60
2019-06-10T03:47:32.517Z,16.70
2019-06-10T03:50:03.253Z,16.90
2019-06-10T03:52:32.482Z,17.00
2019-06-10T03:55:03.109Z,17.20
2019-06-10T03:57:33.104Z,17.30
2019-06-10T04:00:06.432Z,17.50
2019-06-10T04:02:32.676Z,17.90
2019-06-10T04:05:14.439Z,18.10
2019-06-10T04:07:43.020Z,18.30
2019-06-10T04:10:12.567Z,18.40
2019-06-10T04:12:43.478Z,18.60
2019-06-10T04:15:12.404Z,18.70
2019-06-10T04:17:42.803Z,18.80
2019-06-10T04:20:14.926Z,18.90
2019-06-10T04:22:41.759Z,19.00
2019-06-10T04:25:12.112Z,19.00
2019-06-10T04:27:42.418Z,19.10
2019-06-10T04:30:12.747Z,19.10
2019-06-10T04:32:42.921Z,19.10
2019-06-10T04:35:12.673Z,19.10
2019-06-10T04:37:42.862Z,19.20
2019-06-10T04:40:13.321Z,19.30
2019-06-10T04:42:43.586Z,19.40
2019-06-10T04:45:14.036Z,19.50
2019-06-10T04:47:43.153Z,19.80
2019-06-10T04:50:24.118Z,19.90
2019-06-10T04:52:43.063Z,19.90
2019-06-10T04:55:12.737Z,20.00
2019-06-10T04:57:43.047Z,20.00
2019-06-10T05:00:14.668Z,20.10
2019-06-10T05:02:43.029Z,20.20
2019-06-10T05:05:13.124Z,20.70
2019-06-10T05:07:42.747Z,20.80
2019-06-10T05:10:12.529Z,20.80
2019-06-10T05:12:43.244Z,20.90
2019-06-10T05:15:12.535Z,21.10
2019-06-10T05:17:43.724Z,21.00
2019-06-10T05:20:12.609Z,20.90
2019-06-10T05:22:42.445Z,21.10
2019-06-10T05:25:12.855Z,21.50
2019-06-10T05:27:42.927Z,21.50
2019-06-10T05:30:12.356Z,21.40
2019-06-10T05:32:43.002Z,21.60
2019-06-10T05:35:12.377Z,21.60
2019-06-10T05:37:42.345Z,21.50
2019-06-10T05:40:12.741Z,21.70
2019-06-10T05:42:52.808Z,21.70
2019-06-10T05:45:16.029Z,21.90
2019-06-10T05:47:44.554Z,22.10
2019-06-10T05:50:16.424Z,22.10
2019-06-10T05:52:45.111Z,22.20
2019-06-10T05:55:14.352Z,22.10
2019-06-10T05:57:43.011Z,21.80
2019-06-10T06:00:14.928Z,21.90
2019-06-10T06:03:02.739Z,21.80
2019-06-10T06:05:33.272Z,22.00
2019-06-10T06:08:08.155Z,22.00
2019-06-10T06:10:36.109Z,21.80
2019-06-10T06:13:14.501Z,22.20
2019-06-10T06:15:43.233Z,22.50
2019-06-10T06:18:13.999Z,22.70
2019-06-10T06:20:47.101Z,22.70
2019-06-10T06:23:14.753Z,22.70
2019-06-10T06:25:53.464Z,22.60
2019-06-10T06:28:19.427Z,22.70
2019-06-10T06:30:54.302Z,22.90
2019-06-10T06:33:22.972Z,23.10
2019-06-10T06:35:54.524Z,22.90
2019-06-10T06:38:23.104Z,23.00
2019-06-10T06:40:58.669Z,23.10
2019-06-10T06:43:29.017Z,23.10
2019-06-10T06:46:14.959Z,23.20
2019-06-10T06:48:55.168Z,23.40
2019-06-10T06:51:35.719Z,23.70
2019-06-10T06:53:56.347Z,23.50
2019-06-10T06:56:24.208Z,23.50
2019-06-10T06:58:53.061Z,24.00
2019-06-10T07:01:25.489Z,23.60
2019-06-10T07:03:53.547Z,23.70
2019-06-10T07:06:23.946Z,23.70
2019-06-10T07:09:04.262Z,24.10
2019-06-10T07:11:25.001Z,24.20
2019-06-10T07:13:55.163Z,24.50
2019-06-10T07:16:23.814Z,24.40
2019-06-10T07:18:54.037Z,24.70
2019-06-10T07:21:22.991Z,24.60
2019-06-10T07:23:53.078Z,24.50
2019-06-10T07:26:22.207Z,25.20
2019-06-10T07:28:53.449Z,25.00
2019-06-10T07:31:27.484Z,24.60
2019-06-10T07:33:52.562Z,24.60
2019-06-10T07:36:23.607Z,24.60
2019-06-10T07:38:53.898Z,25.70
2019-06-10T07:41:23.238Z,24.60
2019-06-10T07:43:52.768Z,24.30
2019-06-10T07:46:23.018Z,25.00
2019-06-10T07:48:56.350Z,25.10
2019-06-10T07:51:22.763Z,25.80
2019-06-10T07:53:52.517Z,25.70
2019-06-10T07:56:23.278Z,25.80
2019-06-10T07:58:52.825Z,26.00
2019-06-10T08:01:22.966Z,26.40
2019-06-10T08:03:52.772Z,25.70
2019-06-10T08:06:22.875Z,24.90
2019-06-10T08:08:53.139Z,25.40
2019-06-10T08:11:23.006Z,24.80
2019-06-10T08:13:53.937Z,24.80
2019-06-10T08:16:23.682Z,24.90
2019-06-10T08:19:20.469Z,24.60
2019-06-10T08:21:23.097Z,24.90
2019-06-10T08:23:54.276Z,24.50
2019-06-10T08:26:23.260Z,25.30
2019-06-10T08:28:53.089Z,25.80
2019-06-10T08:31:22.562Z,25.70
2019-06-10T08:33:53.432Z,25.40
2019-06-10T08:36:22.567Z,25.80
2019-06-10T08:38:52.749Z,25.60
2019-06-10T08:41:23.087Z,25.00
2019-06-10T08:43:52.934Z,25.50
2019-06-10T08:46:22.607Z,26.50
2019-06-10T08:48:52.567Z,26.30
2019-06-10T08:51:23.615Z,26.70
2019-06-10T08:53:53.168Z,26.70
2019-06-10T08:56:22.505Z,25.80
2019-06-10T08:58:53.799Z,26.30
2019-06-10T09:01:22.326Z,26.10
2019-06-10T09:03:53.705Z,26.50
2019-06-10T09:06:23.083Z,25.90
2019-06-10T09:08:54.499Z,25.40
2019-06-10T09:11:23.651Z,25.50
2019-06-10T09:13:53.303Z,25.50
2019-06-10T09:16:22.884Z,25.70
2019-06-10T09:18:54.913Z,26.30
2019-06-10T09:21:22.387Z,26.50
2019-06-10T09:23:59.074Z,26.10
2019-06-10T09:26:22.862Z,26.20
2019-06-10T09:28:55.867Z,26.10
2019-06-10T09:31:23.755Z,25.80
2019-06-10T09:33:56.632Z,26.40
2019-06-10T09:36:23.621Z,26.40
2019-06-10T09:38:55.035Z,26.50
2019-06-10T09:41:36.059Z,26.60
2019-06-10T09:43:56.933Z,26.30
2019-06-10T09:46:25.642Z,26.00
2019-06-10T09:48:56.048Z,25.60
2019-06-10T09:51:25.802Z,25.20
2019-06-10T09:54:02.120Z,25.20
2019-06-10T09:56:24.892Z,25.50
2019-06-10T09:58:55.328Z,26.10
2019-06-10T10:01:24.665Z,26.30
2019-06-10T10:03:59.744Z,26.50
2019-06-10T10:06:24.425Z,25.80
2019-06-10T10:08:58.004Z,25.90
2019-06-10T10:11:28.285Z,25.80
2019-06-10T10:13:55.124Z,25.80
2019-06-10T10:16:24.249Z,26.30
2019-06-10T10:19:00.230Z,26.50
2019-06-10T10:21:46.912Z,26.20
2019-06-10T10:24:15.138Z,26.30
2019-06-10T10:26:46.668Z,26.80
2019-06-10T10:29:13.414Z,26.90
2019-06-10T10:31:45.001Z,26.60
2019-06-10T10:34:13.423Z,26.50
2019-06-10T10:36:45.426Z,26.50
2019-06-10T10:39:14.054Z,26.60
2019-06-10T10:41:45.150Z,26.80
2019-06-10T10:44:13.872Z,26.70
2019-06-10T10:46:43.892Z,27.00
2019-06-10T10:49:14.281Z,27.50
2019-06-10T10:51:43.001Z,27.50
2019-06-10T10:54:22.422Z,27.40
2019-06-10T10:56:43.625Z,27.10
2019-06-10T10:59:13.327Z,27.40
2019-06-10T11:01:43.961Z,27.10
2019-06-10T11:04:13.286Z,27.10
2019-06-10T11:06:44.103Z,26.80
2019-06-10T11:09:13.376Z,27.00
2019-06-10T11:11:43.992Z,27.70
2019-06-10T11:14:14.962Z,27.50
2019-06-10T11:16:43.390Z,27.40
2019-06-10T11:19:13.011Z,27.60
2019-06-10T11:21:42.666Z,27.30
2019-06-10T11:24:14.241Z,27.20
2019-06-10T11:26:43.232Z,27.10
2019-06-10T11:29:12.243Z,27.20
2019-06-10T11:31:42.797Z,27.20
2019-06-10T11:34:11.616Z,27.40
2019-06-10T11:36:42.440Z,27.60
2019-06-10T11:39:13.391Z,27.10
2019-06-10T11:41:43.628Z,27.30
2019-06-10T11:44:12.119Z,27.20
2019-06-10T11:46:42.852Z,27.30
2019-06-10T11:49:12.556Z,27.40
2019-06-10T11:51:41.427Z,27.30
2019-06-10T11:54:12.604Z,27.30
2019-06-10T11:56:42.145Z,27.10
2019-06-10T11:59:13.426Z,27.00
2019-06-10T12:01:42.620Z,27.50
2019-06-10T12:04:12.874Z,27.60
2019-06-10T12:06:42.597Z,27.10
2019-06-10T12:09:13.759Z,27.00
2019-06-10T12:11:43.816Z,26.90
2019-06-10T12:14:12.970Z,26.80
2019-06-10T12:19:12.771Z,26.50
2019-06-10T12:21:43.392Z,26.30
2019-06-10T12:24:12.715Z,26.80
2019-06-10T12:26:43.383Z,27.60
2019-06-10T12:29:12.544Z,27.50
2019-06-10T12:31:42.752Z,27.50
2019-06-10T12:34:12.481Z,27.30
2019-06-10T12:36:41.480Z,27.50
2019-06-10T12:39:15.344Z,27.60
2019-06-10T12:41:42.957Z,27.90
2019-06-10T12:44:12.419Z,28.00
2019-06-10T12:46:43.148Z,27.80
2019-06-10T12:49:13.102Z,27.60
2019-06-10T12:51:42.510Z,27.50
2019-06-10T12:54:13.109Z,27.70
2019-06-10T12:56:42.907Z,28.00
2019-06-10T12:59:13.570Z,27.80
2019-06-10T13:01:44.666Z,27.20
2019-06-10T13:04:13.705Z,27.10
2019-06-10T13:06:45.671Z,27.40
2019-06-10T13:09:14.334Z,26.90
2019-06-10T13:11:43.449Z,26.70
2019-06-10T13:14:13.012Z,26.70
2019-06-10T13:16:43.311Z,27.10
2019-06-10T13:19:13.189Z,27.50
2019-06-10T13:21:42.573Z,28.00
2019-06-10T13:24:13.253Z,27.50
2019-06-10T13:26:43.180Z,27.40
2019-06-10T13:29:16.890Z,27.20
2019-06-10T13:31:43.482Z,26.90
2019-06-10T13:34:14.669Z,26.70
2019-06-10T13:36:42.927Z,26.40
2019-06-10T13:39:13.519Z,26.50
2019-06-10T13:41:43.770Z,26.70
2019-06-10T13:44:16.560Z,26.60
2019-06-10T13:46:43.430Z,27.00
2019-06-10T13:49:15.565Z,27.60
2019-06-10T13:51:44.489Z,27.90
2019-06-10T13:54:13.937Z,27.50
2019-06-10T13:56:47.025Z,27.60
2019-06-10T13:59:14.273Z,27.20
2019-06-10T14:01:43.000Z,27.20
2019-06-10T14:04:21.252Z,27.20
2019-06-10T14:06:49.791Z,27.40
2019-06-10T14:09:16.456Z,27.70
2019-06-10T14:11:45.363Z,27.80
2019-06-10T14:14:17.471Z,27.40
2019-06-10T14:16:44.363Z,27.30
2019-06-10T14:19:16.114Z,27.30
2019-06-10T14:21:43.980Z,27.60
2019-06-10T14:24:15.823Z,27.80
2019-06-10T14:26:46.395Z,27.90
2019-06-10T14:29:16.925Z,28.10
2019-06-10T14:31:47.907Z,27.70
2019-06-10T14:34:18.402Z,27.50
2019-06-10T14:36:46.399Z,27.30
2019-06-10T14:39:16.088Z,27.60
2019-06-10T14:41:46.016Z,27.50
2019-06-10T14:44:17.761Z,27.20
2019-06-10T14:46:44.806Z,27.40
2019-06-10T14:49:15.299Z,27.40
2019-06-10T14:51:43.801Z,27.20
2019-06-10T14:54:17.520Z,27.10
2019-06-10T14:56:53.041Z,27.40
2019-06-10T14:59:15.983Z,27.70
2019-06-10T15:01:43.541Z,27.60
2019-06-10T15:04:14.683Z,27.50
2019-06-10T15:06:43.351Z,27.90
2019-06-10T15:09:13.581Z,27.70
2019-06-10T15:11:42.820Z,27.70
2019-06-10T15:14:14.195Z,27.40
2019-06-10T15:16:43.738Z,27.50
2019-06-10T15:19:19.971Z,27.60
2019-06-10T15:21:43.439Z,27.20
2019-06-10T15:24:12.063Z,27.10
2019-06-10T15:26:42.217Z,27.10
2019-06-10T15:29:11.836Z,27.40
2019-06-10T15:31:42.831Z,27.20
2019-06-10T15:34:15.011Z,27.10
2019-06-10T15:36:43.218Z,27.50
2019-06-10T15:39:16.164Z,27.40
2019-06-10T15:41:42.877Z,27.40
2019-06-10T15:44:14.559Z,27.20
2019-06-10T15:46:43.041Z,27.10
2019-06-10T15:49:14.589Z,26.90
2019-06-10T15:51:43.534Z,26.90
2019-06-10T15:54:14.000Z,26.80
2019-06-10T15:56:51.994Z,26.90
2019-06-10T15:59:14.929Z,26.50
2019-06-10T16:01:43.188Z,26.70
2019-06-10T16:04:14.072Z,26.40
2019-06-10T16:06:42.543Z,26.50
2019-06-10T16:09:13.427Z,26.40
2019-06-10T16:11:43.632Z,26.50
2019-06-10T16:14:12.570Z,26.20
2019-06-10T16:16:43.207Z,26.10
2019-06-10T16:19:13.321Z,26.20
2019-06-10T16:21:42.863Z,26.10
2019-06-10T16:24:13.593Z,26.00
2019-06-10T16:26:41.878Z,25.80
2019-06-10T16:29:12.300Z,25.60
2019-06-10T16:31:42.547Z,25.70
2019-06-10T16:34:12.717Z,25.50
2019-06-10T16:36:42.762Z,25.50
2019-06-10T16:39:12.645Z,25.50
2019-06-10T16:41:43.071Z,25.40
2019-06-10T16:44:13.634Z,25.30
2019-06-10T16:46:43.115Z,25.30
2019-06-10T16:49:12.720Z,25.30
2019-06-10T16:51:42.934Z,25.30
2019-06-10T16:54:12.979Z,25.20
2019-06-10T16:56:43.549Z,25.20
2019-06-10T16:59:12.291Z,25.20
2019-06-10T17:01:42.765Z,25.20
2019-06-10T17:04:12.499Z,25.00
2019-06-10T17:06:42.165Z,25.00
2019-06-10T17:09:13.325Z,24.90
2019-06-10T17:11:42.624Z,25.00
2019-06-10T17:14:12.608Z,24.90
2019-06-10T17:16:42.898Z,24.90
2019-06-10T17:19:11.472Z,24.80
2019-06-10T17:21:42.137Z,24.80
2019-06-10T17:24:12.650Z,24.70
2019-06-10T17:26:42.441Z,24.60
2019-06-10T17:29:10.892Z,24.60
2019-06-10T17:31:39.506Z,24.50
2019-06-10T17:34:08.189Z,24.50
2019-06-10T17:36:36.829Z,24.50
2019-06-10T17:39:08.391Z,24.80
2019-06-10T17:41:37.633Z,25.10
2019-06-10T17:44:07.206Z,25.00
2019-06-10T17:46:37.421Z,24.60
2019-06-10T17:49:06.054Z,24.50
2019-06-10T17:51:35.652Z,24.30
2019-06-10T17:54:04.667Z,24.20
2019-06-10T17:56:35.976Z,24.10
2019-06-10T17:59:06.810Z,24.10
2019-06-10T18:01:35.656Z,24.00
2019-06-10T18:04:04.397Z,24.00
2019-06-10T18:06:36.071Z,23.90
2019-06-10T18:09:04.346Z,23.80
2019-06-10T18:11:35.666Z,23.70
2019-06-10T18:14:03.368Z,23.70
2019-06-10T18:16:35.926Z,23.50
2019-06-10T18:19:03.316Z,23.50
2019-06-10T18:21:33.499Z,23.50
2019-06-10T18:24:07.494Z,23.40
2019-06-10T18:26:35.893Z,23.30
2019-06-10T18:29:08.124Z,23.30
2019-06-10T18:31:35.009Z,23.10
2019-06-10T18:34:03.792Z,23.00
2019-06-10T18:36:33.130Z,23.00
2019-06-10T18:39:03.075Z,22.90
2019-06-10T18:41:31.711Z,22.90
2019-06-10T18:44:02.199Z,22.80
2019-06-10T18:46:33.333Z,22.80
2019-06-10T18:49:02.780Z,22.80
2019-06-10T18:51:32.018Z,22.80
2019-06-10T18:54:01.444Z,22.80
2019-06-10T18:56:32.679Z,22.70
2019-06-10T18:59:13.417Z,22.60
2019-06-10T19:01:30.782Z,22.50
2019-06-10T19:04:08.548Z,22.40
2019-06-10T19:06:38.584Z,22.30
2019-06-10T19:09:08.808Z,22.20
2019-06-10T19:11:38.820Z,22.20
2019-06-10T19:14:07.754Z,22.10
2019-06-10T19:16:37.339Z,22.10
2019-06-10T19:19:07.395Z,22.10
2019-06-10T19:21:36.330Z,22.10
2019-06-10T19:24:05.356Z,22.30
2019-06-10T19:26:36.776Z,22.40
2019-06-10T19:29:04.468Z,22.50
2019-06-10T19:31:36.237Z,22.50
2019-06-10T19:34:03.647Z,22.40
2019-06-10T19:36:33.511Z,22.30
2019-06-10T19:39:02.749Z,22.20
2019-06-10T19:41:35.752Z,22.20
2019-06-10T19:44:02.468Z,22.20
2019-06-10T19:46:34.221Z,22.20
2019-06-10T19:49:07.233Z,22.10
2019-06-10T19:51:35.831Z,22.10
2019-06-10T19:54:06.376Z,22.00
2019-06-10T19:56:35.135Z,21.90
2019-06-10T19:59:03.764Z,22.00
2019-06-10T20:01:39.395Z,22.00
2019-06-10T20:04:08.879Z,22.10
2019-06-10T20:06:37.881Z,22.10
2019-06-10T20:09:09.756Z,22.10
2019-06-10T20:11:38.486Z,22.00
2019-06-10T20:14:07.218Z,22.00
2019-06-10T20:16:36.029Z,22.00
2019-06-10T20:19:08.205Z,22.00
2019-06-10T20:21:38.045Z,22.00
2019-06-10T20:24:06.857Z,21.90
2019-06-10T20:26:36.772Z,21.90
2019-06-10T20:29:05.606Z,21.80
2019-06-10T20:31:34.209Z,21.70
2019-06-10T20:34:02.883Z,21.70
2019-06-10T20:36:33.463Z,21.60
2019-06-10T20:39:02.037Z,21.60
2019-06-10T20:41:30.658Z,21.60
2019-06-10T20:43:59.439Z,21.50
2019-06-10T20:46:28.039Z,21.40
2019-06-10T20:48:56.621Z,21.20
2019-06-10T20:51:27.218Z,21.10
2019-06-10T20:53:55.415Z,21.10
2019-06-10T20:56:24.026Z,21.10
2019-06-10T20:58:52.619Z,21.20
2019-06-10T21:01:25.155Z,21.20
2019-06-10T21:03:54.086Z,21.10
2019-06-10T21:06:23.903Z,21.10
2019-06-10T21:08:54.774Z,21.10
2019-06-10T21:11:32.105Z,21.10
2019-06-10T21:14:00.183Z,21.00
2019-06-10T21:16:28.736Z,20.90
2019-06-10T21:18:57.414Z,20.80
2019-06-10T21:21:25.909Z,20.80
2019-06-10T21:23:54.557Z,20.90
2019-06-10T21:26:23.766Z,21.00
2019-06-10T21:28:55.088Z,20.90
2019-06-10T21:31:23.167Z,20.90
2019-06-10T21:33:55.345Z,20.90
2019-06-10T21:36:22.993Z,20.80
2019-06-10T21:38:55.418Z,20.70
2019-06-10T21:41:22.732Z,20.80
2019-06-10T21:43:57.567Z,21.10
2019-06-10T21:46:22.624Z,21.10
2019-06-10T21:48:52.524Z,21.10
2019-06-10T21:51:22.849Z,21.00
2019-06-10T21:53:53.795Z,21.10
2019-06-10T21:56:22.752Z,21.30
2019-06-10T21:58:53.635Z,21.30
2019-06-10T22:01:22.492Z,21.60
2019-06-10T22:03:59.952Z,21.60
2019-06-10T22:06:22.798Z,21.60
2019-06-10T22:08:54.501Z,21.70
2019-06-10T22:11:23.413Z,21.80
2019-06-10T22:13:53.329Z,21.90
2019-06-10T22:16:22.740Z,21.70
2019-06-10T22:18:52.633Z,21.70
2019-06-10T22:21:42.980Z,21.60
2019-06-10T22:24:12.537Z,21.60
2019-06-10T22:26:42.492Z,21.40
2019-06-10T22:29:12.679Z,21.30
2019-06-10T22:31:42.875Z,21.30
2019-06-10T22:34:12.657Z,21.30
2019-06-10T22:36:42.380Z,21.30
2019-06-10T22:39:12.523Z,21.40
2019-06-10T22:41:42.599Z,21.50
2019-06-10T22:44:12.681Z,21.60
2019-06-10T22:46:42.556Z,21.60
2019-06-10T22:49:13.460Z,21.40
2019-06-10T22:51:42.835Z,21.40
2019-06-10T22:54:11.512Z,21.20
2019-06-10T22:56:42.295Z,21.20
2019-06-10T22:59:10.298Z,21.10
2019-06-10T23:01:38.869Z,21.10
2019-06-10T23:04:07.533Z,21.00
2019-06-10T23:06:36.040Z,21.00
2019-06-10T23:09:06.294Z,21.10
2019-06-10T23:11:34.931Z,21.10
2019-06-10T23:14:03.579Z,21.00
2019-06-10T23:16:32.151Z,20.90
2019-06-10T23:19:02.932Z,20.80
2019-06-10T23:21:31.496Z,20.90
2019-06-10T23:24:02.955Z,20.90
2019-06-10T23:26:32.993Z,20.90
2019-06-10T23:29:03.066Z,20.90
2019-06-10T23:31:33.648Z,20.90
2019-06-10T23:34:02.195Z,21.00
2019-06-10T23:36:32.682Z,21.00
2019-06-10T23:39:03.781Z,20.90
2019-06-10T23:41:32.908Z,20.80
2019-06-10T23:44:04.091Z,20.80
2019-06-10T23:46:32.030Z,20.90
2019-06-10T23:49:03.109Z,20.90
2019-06-10T23:51:33.261Z,20.80
2019-06-10T23:54:04.625Z,20.80
2019-06-10T23:56:32.630Z,20.80
2019-06-10T23:59:03.487Z,20.80
